createdAt,value
2018-10-21T00:02:35.776Z,9.73
2018-10-21T00:05:26.105Z,8.63
2018-10-21T00:08:16.670Z,8.53
2018-10-21T00:11:07.063Z,8.43
2018-10-21T00:13:57.404Z,8.27
2018-10-21T00:16:47.957Z,8.97
2018-10-21T00:22:47.308Z,8.97
2018-10-21T00:25:37.684Z,8.23
2018-10-21T00:28:28.394Z,8.37
2018-10-21T00:31:18.737Z,9.03
2018-10-21T00:34:21.915Z,9.37
2018-10-21T00:36:59.801Z,9.03
2018-10-21T00:39:48.196Z,8.93
2018-10-21T00:42:38.544Z,8.83
2018-10-21T00:45:28.946Z,9.03
2018-10-21T00:51:28.739Z,10.13
2018-10-21T00:57:41.873Z,8.83
2018-10-21T01:00:32.981Z,9.40
2018-10-21T01:03:23.289Z,9.43
2018-10-21T01:09:28.893Z,9.67
2018-10-21T01:12:19.239Z,9.80
2018-10-21T01:15:11.087Z,9.97
2018-10-21T01:18:14.103Z,8.53
2018-10-21T01:20:52.676Z,9.60
2018-10-21T01:23:44.446Z,8.60
2018-10-21T01:26:53.453Z,8.87
2018-10-21T01:30:02.408Z,9.00
2018-10-21T01:32:53.031Z,9.13
2018-10-21T01:36:02.542Z,9.03
2018-10-21T01:38:53.155Z,9.73
2018-10-21T01:42:12.535Z,9.13
2018-10-21T01:44:34.487Z,8.97
2018-10-21T01:47:25.271Z,8.63
2018-10-21T01:50:16.165Z,8.93
2018-10-21T01:53:07.702Z,8.00
2018-10-21T01:55:58.280Z,8.87
2018-10-21T02:01:42.662Z,7.47
2018-10-21T02:04:32.997Z,8.07
2018-10-21T02:07:23.357Z,8.90
2018-10-21T02:10:25.416Z,8.67
2018-10-21T02:13:04.651Z,7.70
2018-10-21T02:15:55.004Z,9.00
2018-10-21T02:21:40.968Z,7.93
2018-10-21T02:24:31.307Z,8.43
2018-10-21T02:27:22.150Z,9.03
2018-10-21T02:30:14.649Z,8.47
2018-10-21T02:33:05.096Z,8.63
2018-10-21T02:35:55.880Z,9.70
2018-10-21T02:38:46.229Z,8.80
2018-10-21T02:41:59.392Z,8.57
2018-10-21T02:44:49.790Z,9.77
2018-10-21T02:47:40.247Z,9.80
2018-10-21T02:50:30.907Z,10.43
2018-10-21T02:53:21.274Z,9.30
2018-10-21T02:56:12.561Z,9.70
2018-10-21T02:59:03.470Z,9.27
2018-10-21T03:01:53.866Z,9.57
2018-10-21T03:04:44.621Z,9.73
2018-10-21T03:07:35.364Z,9.90
2018-10-21T03:10:25.791Z,10.20
2018-10-21T03:13:16.100Z,10.57
2018-10-21T03:16:06.613Z,9.07
2018-10-21T03:21:50.509Z,11.17
2018-10-21T03:24:40.833Z,11.03
2018-10-21T03:27:31.198Z,9.73
2018-10-21T03:30:22.130Z,10.40
2018-10-21T03:33:14.364Z,11.17
2018-10-21T03:38:57.425Z,10.67
2018-10-21T03:41:47.771Z,10.70
2018-10-21T03:44:38.467Z,10.33
2018-10-21T03:47:29.186Z,10.87
2018-10-21T03:50:20.598Z,9.30
2018-10-21T03:53:11.308Z,10.90
2018-10-21T03:55:59.601Z,10.43
2018-10-21T03:58:50.564Z,10.50
2018-10-21T04:01:41.543Z,9.27
2018-10-21T04:04:31.857Z,10.20
2018-10-21T04:07:22.272Z,9.73
2018-10-21T04:10:12.920Z,10.63
2018-10-21T04:13:03.206Z,10.13
2018-10-21T04:15:53.955Z,10.63
2018-10-21T04:18:44.314Z,9.60
2018-10-21T04:21:36.026Z,9.93
2018-10-21T04:24:27.059Z,11.00
2018-10-21T04:27:17.448Z,10.47
2018-10-21T04:30:08.868Z,9.90
2018-10-21T04:33:17.822Z,10.17
2018-10-21T04:36:08.530Z,10.13
2018-10-21T04:39:51.898Z,10.63
2018-10-21T04:42:26.532Z,10.80
2018-10-21T04:45:36.024Z,9.97
2018-10-21T04:48:26.447Z,10.03
2018-10-21T04:51:17.492Z,10.37
2018-10-21T04:54:08.728Z,10.37
2018-10-21T05:00:28.868Z,8.93
2018-10-21T05:03:19.411Z,10.23
2018-10-21T05:06:09.773Z,10.60
2018-10-21T05:09:00.874Z,9.37
2018-10-21T05:11:51.269Z,11.10
2018-10-21T05:15:00.726Z,10.47
2018-10-21T05:17:51.285Z,10.07
2018-10-21T05:20:42.276Z,10.73
2018-10-21T05:23:32.653Z,10.23
2018-10-21T05:26:24.105Z,10.47
2018-10-21T05:29:14.681Z,10.80
2018-10-21T05:32:05.688Z,10.23
2018-10-21T05:34:56.051Z,9.97
2018-10-21T05:37:47.230Z,10.13
2018-10-21T05:40:38.300Z,10.67
2018-10-21T05:43:28.627Z,10.87
2018-10-21T05:46:56.983Z,11.20
2018-10-21T05:50:06.304Z,11.67
2018-10-21T05:52:57.241Z,11.00
2018-10-21T05:55:48.049Z,10.93
2018-10-21T05:58:51.798Z,10.77
2018-10-21T06:01:29.153Z,12.73
2018-10-21T06:04:20.446Z,11.73
2018-10-21T06:07:11.103Z,11.93
2018-10-21T06:13:16.392Z,11.13
2018-10-21T06:16:06.831Z,13.03
2018-10-21T06:19:02.261Z,11.73
2018-10-21T06:22:05.988Z,11.97
2018-10-21T06:24:43.449Z,11.60
2018-10-21T06:27:33.817Z,11.07
2018-10-21T06:30:24.200Z,12.47
2018-10-21T06:36:07.673Z,11.73
2018-10-21T06:41:54.423Z,11.97
2018-10-21T06:47:33.124Z,12.63
2018-10-21T06:50:40.976Z,11.57
2018-10-21T06:53:28.325Z,12.50
2018-10-21T06:56:19.431Z,13.40
2018-10-21T06:59:10.161Z,13.67
2018-10-21T07:02:00.485Z,15.47
2018-10-21T07:04:50.874Z,13.90
2018-10-21T07:07:41.226Z,14.23
2018-10-21T07:10:30.019Z,14.43
2018-10-21T07:13:20.380Z,13.60
2018-10-21T07:16:11.365Z,12.87
2018-10-21T07:18:44.309Z,13.13
2018-10-21T07:21:34.718Z,12.47
2018-10-21T07:24:25.159Z,13.57
2018-10-21T07:30:12.353Z,12.87
2018-10-21T07:33:03.640Z,13.37
2018-10-21T07:35:53.982Z,13.77
2018-10-21T07:38:44.364Z,13.83
2018-10-21T07:41:53.586Z,12.70
2018-10-21T07:44:43.958Z,14.47
2018-10-21T07:47:34.329Z,13.97
2018-10-21T07:53:34.492Z,13.47
2018-10-21T08:02:49.953Z,12.87
2018-10-21T08:06:18.833Z,12.90
2018-10-21T08:09:29.817Z,11.57
2018-10-21T08:12:21.811Z,12.20
2018-10-21T08:15:32.339Z,11.10
2018-10-21T08:24:54.913Z,13.30
2018-10-21T08:31:34.112Z,12.27
2018-10-21T08:40:38.342Z,12.60
2018-10-21T08:43:30.364Z,12.50
2018-10-21T08:46:40.748Z,11.40
2018-10-21T08:49:33.668Z,13.40
2018-10-21T08:52:25.832Z,13.37
2018-10-21T08:58:33.630Z,13.83
2018-10-21T09:01:25.601Z,12.40
2018-10-21T09:04:17.622Z,14.10
2018-10-21T09:10:24.121Z,12.67
2018-10-21T09:16:26.150Z,13.60
2018-10-21T09:19:18.670Z,13.40
2018-10-21T09:22:10.631Z,12.03
2018-10-21T09:28:29.782Z,10.83
2018-10-21T09:41:07.828Z,10.63
2018-10-21T09:44:19.085Z,11.70
2018-10-21T09:47:09.571Z,9.33
2018-10-21T09:50:01.706Z,9.50
2018-10-21T09:52:54.071Z,7.63
2018-10-21T09:55:44.495Z,8.43
2018-10-21T09:58:35.016Z,9.00
2018-10-21T10:01:43.984Z,9.83
2018-10-21T10:04:34.365Z,9.07
2018-10-21T10:07:25.085Z,7.43
2018-10-21T10:10:15.725Z,7.47
2018-10-21T10:13:06.315Z,7.23
2018-10-21T10:19:07.621Z,4.50
2018-10-21T10:21:57.984Z,3.90
2018-10-21T10:24:48.297Z,3.03
2018-10-21T10:27:38.743Z,3.00
2018-10-21T10:30:47.720Z,3.23
2018-10-21T10:36:34.677Z,2.00
2018-10-21T10:42:18.573Z,2.23
2018-10-21T10:45:09.394Z,1.87
2018-10-21T10:47:59.810Z,2.23
2018-10-21T10:50:50.198Z,1.73
2018-10-21T10:53:37.535Z,2.40
2018-10-21T10:56:21.032Z,2.30
2018-10-21T10:59:11.372Z,1.67
2018-10-21T11:02:01.747Z,1.73
2018-10-21T11:04:52.086Z,2.17
2018-10-21T11:07:42.496Z,1.90
2018-10-21T11:13:22.500Z,2.03
2018-10-21T11:19:29.412Z,2.87
2018-10-21T11:22:20.363Z,1.90
2018-10-21T11:25:29.601Z,3.37
2018-10-21T11:28:20.370Z,2.67
2018-10-21T11:31:10.861Z,3.10
2018-10-21T11:34:02.054Z,2.50
2018-10-21T11:36:52.368Z,2.70
2018-10-21T11:39:42.804Z,3.13
2018-10-21T11:42:30.300Z,3.67
2018-10-21T11:45:20.751Z,3.13
2018-10-21T11:48:11.319Z,2.97
2018-10-21T11:53:52.722Z,3.63
2018-10-21T11:56:43.525Z,3.80
2018-10-21T11:59:34.001Z,3.43
2018-10-21T12:02:36.771Z,3.57
2018-10-21T12:05:14.907Z,3.80
2018-10-21T12:08:05.539Z,3.60
2018-10-21T12:10:55.981Z,3.03
2018-10-21T12:13:46.406Z,3.27
2018-10-21T12:16:37.209Z,3.30
2018-10-21T12:19:28.398Z,3.57
2018-10-21T12:22:18.869Z,3.63
2018-10-21T12:25:09.491Z,2.90
2018-10-21T12:28:00.188Z,2.83
2018-10-21T12:31:10.020Z,3.13
2018-10-21T12:34:00.785Z,3.13
2018-10-21T12:36:51.481Z,3.47
2018-10-21T12:45:52.361Z,3.30
2018-10-21T12:48:43.369Z,3.47
2018-10-21T12:51:31.690Z,3.23
2018-10-21T12:54:22.771Z,3.43
2018-10-21T12:57:13.632Z,3.77
2018-10-21T13:00:04.224Z,3.30
2018-10-21T13:02:54.933Z,3.40
2018-10-21T13:05:45.505Z,3.53
2018-10-21T13:08:44.696Z,3.00
2018-10-21T13:14:50.237Z,4.37
2018-10-21T13:17:59.591Z,3.33
2018-10-21T13:20:50.741Z,3.37
2018-10-21T13:23:41.100Z,3.40
2018-10-21T13:26:31.822Z,3.70
2018-10-21T13:29:22.165Z,4.17
2018-10-21T13:32:12.585Z,2.87
2018-10-21T13:35:02.912Z,3.33
2018-10-21T13:41:08.095Z,2.73
2018-10-21T13:47:26.585Z,2.60
2018-10-21T13:50:16.947Z,2.30
2018-10-21T13:56:16.740Z,2.90
2018-10-21T13:59:07.267Z,2.53
2018-10-21T14:01:57.598Z,2.13
2018-10-21T14:05:08.857Z,2.27
2018-10-21T14:07:59.619Z,1.83
2018-10-21T14:10:50.447Z,1.63
2018-10-21T14:13:41.323Z,2.30
2018-10-21T14:16:33.175Z,1.93
2018-10-21T14:19:23.315Z,1.33
2018-10-21T14:22:13.748Z,1.53
2018-10-21T14:25:23.209Z,1.37
2018-10-21T14:28:13.687Z,1.70
2018-10-21T14:31:04.171Z,2.03
2018-10-21T14:37:03.851Z,1.47
2018-10-21T14:40:14.362Z,1.63
2018-10-21T14:43:04.724Z,2.00
2018-10-21T14:46:14.591Z,1.73
2018-10-21T14:49:23.997Z,1.50
2018-10-21T14:55:11.137Z,1.40
2018-10-21T14:57:58.376Z,1.90
2018-10-21T15:01:08.256Z,1.67
2018-10-21T15:03:59.494Z,1.43
2018-10-21T15:06:50.135Z,1.90
2018-10-21T15:09:40.470Z,1.70
2018-10-21T15:12:31.069Z,1.57
2018-10-21T15:15:21.417Z,2.07
2018-10-21T15:18:13.088Z,1.80
2018-10-21T15:21:03.619Z,1.87
2018-10-21T15:24:16.392Z,2.23
2018-10-21T15:27:06.815Z,2.07
2018-10-21T15:29:57.187Z,2.03
2018-10-21T15:32:59.326Z,1.63
2018-10-21T15:35:38.386Z,1.63
2018-10-21T15:38:28.730Z,1.37
2018-10-21T15:41:19.686Z,1.30
2018-10-21T15:44:21.823Z,1.57
2018-10-21T15:47:00.611Z,1.40
2018-10-21T15:49:51.275Z,1.27
2018-10-21T15:52:41.634Z,2.03
2018-10-21T15:55:31.981Z,1.40
2018-10-21T15:58:23.071Z,1.43
2018-10-21T16:01:13.421Z,1.47
2018-10-21T16:04:03.908Z,1.50
2018-10-21T16:06:54.456Z,1.47
2018-10-21T16:09:44.864Z,1.40
2018-10-21T16:12:35.430Z,1.43
2018-10-21T16:15:25.828Z,1.50
2018-10-21T16:18:16.170Z,1.53
2018-10-21T16:21:07.141Z,1.70
2018-10-21T16:23:57.487Z,1.13
2018-10-21T16:29:40.113Z,1.33
2018-10-21T16:32:30.518Z,1.67
2018-10-21T16:35:20.806Z,1.70
2018-10-21T16:38:10.671Z,1.60
2018-10-21T16:41:37.760Z,1.70
2018-10-21T16:44:28.091Z,2.33
2018-10-21T16:47:18.515Z,1.73
2018-10-21T16:53:03.037Z,2.70
2018-10-21T16:55:51.545Z,2.83
2018-10-21T16:58:41.914Z,3.10
2018-10-21T17:01:32.256Z,3.33
2018-10-21T17:04:22.642Z,4.40
2018-10-21T17:10:10.103Z,6.60
2018-10-21T17:13:00.639Z,6.13
2018-10-21T17:15:51.465Z,6.57
2018-10-21T17:18:42.433Z,6.70
2018-10-21T17:24:20.938Z,6.40
2018-10-21T17:27:11.265Z,6.47
2018-10-21T17:32:53.517Z,5.93
2018-10-21T17:35:43.888Z,7.60
2018-10-21T17:38:34.284Z,7.00
2018-10-21T17:41:24.812Z,6.13
2018-10-21T17:44:15.395Z,6.27
2018-10-21T17:47:05.786Z,5.53
2018-10-21T17:53:32.566Z,5.43
2018-10-21T17:56:23.104Z,5.27
2018-10-21T17:59:13.584Z,5.47
2018-10-21T18:02:03.979Z,4.13
2018-10-21T18:04:54.824Z,5.03
2018-10-21T18:07:45.544Z,4.43
2018-10-21T18:13:26.295Z,4.30
2018-10-21T18:16:17.252Z,3.57
2018-10-21T18:19:08.520Z,4.37
2018-10-21T18:22:12.835Z,4.30
2018-10-21T18:24:49.327Z,4.23
2018-10-21T18:27:40.114Z,5.10
2018-10-21T18:30:31.222Z,5.40
2018-10-21T18:36:55.057Z,5.67
2018-10-21T18:39:45.436Z,5.43
2018-10-21T18:42:35.868Z,6.27
2018-10-21T18:45:26.304Z,5.90
2018-10-21T18:48:16.803Z,7.00
2018-10-21T18:51:07.588Z,6.30
2018-10-21T18:53:58.219Z,6.57
2018-10-21T18:56:48.684Z,6.57
2018-10-21T18:59:39.520Z,7.00
2018-10-21T19:02:48.938Z,6.97
2018-10-21T19:05:40.175Z,7.27
2018-10-21T19:08:30.575Z,7.10
2018-10-21T19:11:21.493Z,7.70
2018-10-21T19:14:11.871Z,7.67
2018-10-21T19:17:02.801Z,7.50
2018-10-21T19:22:48.785Z,7.80
2018-10-21T19:25:39.705Z,7.27
2018-10-21T19:28:30.507Z,7.97
2018-10-21T19:31:21.371Z,8.50
2018-10-21T19:34:12.027Z,7.70
2018-10-21T19:37:02.490Z,7.77
2018-10-21T19:39:52.850Z,8.13
2018-10-21T19:42:43.957Z,7.43
2018-10-21T19:45:34.819Z,7.67
2018-10-21T19:48:25.190Z,8.57
2018-10-21T19:51:15.550Z,8.00
2018-10-21T19:54:06.303Z,10.03
2018-10-21T19:56:56.729Z,11.23
2018-10-21T19:59:47.146Z,8.27
2018-10-21T20:02:37.747Z,8.77
2018-10-21T20:05:28.126Z,9.47
2018-10-21T20:08:38.127Z,8.97
2018-10-21T20:14:23.792Z,7.53
2018-10-21T20:17:14.542Z,8.10
2018-10-21T20:20:05.214Z,7.93
2018-10-21T20:22:56.364Z,7.93
2018-10-21T20:25:46.848Z,8.37
2018-10-21T20:28:37.490Z,7.37
2018-10-21T20:31:27.866Z,6.90
2018-10-21T20:34:18.301Z,8.97
2018-10-21T20:37:09.956Z,7.83
2018-10-21T20:40:00.399Z,7.63
2018-10-21T20:43:09.688Z,8.00
2018-10-21T20:46:00.479Z,7.90
2018-10-21T20:48:51.726Z,7.50
2018-10-21T20:51:42.533Z,7.03
2018-10-21T20:54:51.378Z,7.07
2018-10-21T20:57:41.757Z,7.27
2018-10-21T21:00:32.479Z,7.50
2018-10-21T21:03:22.832Z,6.70
2018-10-21T21:06:13.236Z,7.07
2018-10-21T21:11:56.894Z,6.97
2018-10-21T21:14:47.284Z,6.90
2018-10-21T21:18:11.396Z,7.80
2018-10-21T21:20:28.273Z,7.70
2018-10-21T21:23:19.379Z,7.67
2018-10-21T21:26:10.743Z,8.17
2018-10-21T21:29:01.145Z,7.63
2018-10-21T21:32:06.512Z,7.67
2018-10-21T21:34:42.350Z,7.40
2018-10-21T21:37:33.011Z,6.97
2018-10-21T21:40:23.652Z,7.47
2018-10-21T21:43:14.018Z,8.03
2018-10-21T21:46:04.834Z,7.30
2018-10-21T21:55:05.916Z,6.63
2018-10-21T21:57:56.294Z,6.33
2018-10-21T22:00:46.664Z,6.80
2018-10-21T22:03:37.045Z,6.40
2018-10-21T22:06:27.442Z,6.10
2018-10-21T22:09:18.449Z,6.17
2018-10-21T22:12:09.239Z,6.80
2018-10-21T22:17:55.643Z,7.00
2018-10-21T22:20:45.982Z,6.10
2018-10-21T22:23:33.339Z,6.87
2018-10-21T22:26:35.746Z,6.90
2018-10-21T22:32:17.277Z,5.77
2018-10-21T22:34:55.341Z,5.83
2018-10-21T22:37:45.691Z,6.33
2018-10-21T22:40:36.412Z,6.27
2018-10-21T22:43:27.101Z,5.47
2018-10-21T22:46:17.480Z,6.00
2018-10-21T22:52:03.926Z,5.47
2018-10-21T22:55:06.517Z,5.60
2018-10-21T22:57:44.863Z,4.87
2018-10-21T23:00:35.527Z,5.73
2018-10-21T23:03:26.418Z,4.90
2018-10-21T23:06:17.289Z,5.70
2018-10-21T23:09:10.754Z,5.07
2018-10-21T23:12:01.122Z,5.73
2018-10-21T23:14:51.784Z,5.27
2018-10-21T23:17:42.128Z,5.40
2018-10-21T23:23:29.021Z,4.73
2018-10-21T23:26:31.761Z,5.20
2018-10-21T23:29:10.652Z,4.87
2018-10-21T23:32:01.216Z,4.33
2018-10-21T23:34:51.985Z,4.27
2018-10-21T23:37:42.353Z,5.40
2018-10-21T23:40:32.967Z,4.40
2018-10-21T23:43:20.322Z,5.07
2018-10-21T23:46:11.620Z,4.23
2018-10-21T23:49:21.056Z,4.77
2018-10-21T23:52:11.517Z,4.27
2018-10-21T23:55:02.362Z,4.80
2018-10-21T23:57:53.222Z,5.03
